createdAt,value
2018-03-23T00:00:49.786Z,22.14
2018-03-23T00:01:49.780Z,22.12
2018-03-23T00:02:49.774Z,22.14
2018-03-23T00:03:49.768Z,22.15
2018-03-23T00:04:49.777Z,22.01
2018-03-23T00:05:49.757Z,22.02
2018-03-23T00:06:49.753Z,22.08
2018-03-23T00:07:49.746Z,22.05
2018-03-23T00:08:49.739Z,22.01
2018-03-23T00:09:49.739Z,22.02
2018-03-23T00:10:49.728Z,22.05
2018-03-23T00:11:49.723Z,21.99
2018-03-23T00:12:49.716Z,22.11
2018-03-23T00:13:49.710Z,22.06
2018-03-23T00:14:49.705Z,22.02
2018-03-23T00:15:49.699Z,21.98
2018-03-23T00:16:49.693Z,22.04
2018-03-23T00:17:49.787Z,22.01
2018-03-23T00:18:49.697Z,22.06
2018-03-23T00:19:49.676Z,22.05
2018-03-23T00:20:49.669Z,22.02
2018-03-23T00:21:49.678Z,21.94
2018-03-23T00:22:49.659Z,22.04
2018-03-23T00:23:49.651Z,22.06
2018-03-23T00:24:49.647Z,21.98
2018-03-23T00:25:49.639Z,22.04
2018-03-23T00:26:49.634Z,22.02
2018-03-23T00:27:49.643Z,21.96
2018-03-23T00:28:49.621Z,22.04
2018-03-23T00:29:49.636Z,21.96
2018-03-23T00:30:49.610Z,21.98
2018-03-23T00:31:49.619Z,22.02
2018-03-23T00:32:49.600Z,22.05
2018-03-23T00:33:49.607Z,22.02
2018-03-23T00:34:49.585Z,22.01
2018-03-23T00:35:49.600Z,21.96
2018-03-23T00:36:49.574Z,22.05
2018-03-23T00:37:49.567Z,22.04
2018-03-23T00:38:49.563Z,22.02
2018-03-23T00:39:49.571Z,21.94
2018-03-23T00:40:49.550Z,21.91
2018-03-23T00:41:49.543Z,22.06
2018-03-23T00:42:49.557Z,21.96
2018-03-23T00:43:49.551Z,22.06
2018-03-23T00:44:49.528Z,21.98
2018-03-23T00:45:49.520Z,22.04
2018-03-23T00:46:49.517Z,21.99
2018-03-23T00:47:49.527Z,22.04
2018-03-23T00:48:49.501Z,22.01
2018-03-23T00:49:49.497Z,21.93
2018-03-23T00:50:49.493Z,22.06
2018-03-23T00:51:49.500Z,22.02
2018-03-23T00:52:49.478Z,21.91
2018-03-23T00:53:49.472Z,22.02
2018-03-23T00:54:49.466Z,22.02
2018-03-23T00:55:49.460Z,21.96
2018-03-23T00:56:49.461Z,21.86
2018-03-23T00:57:49.449Z,21.99
2018-03-23T00:58:49.446Z,21.99
2018-03-23T00:59:49.440Z,22.02
2018-03-23T01:00:49.429Z,21.98
2018-03-23T01:01:49.439Z,22.05
2018-03-23T01:02:49.418Z,22.04
2018-03-23T01:03:49.432Z,22.02
2018-03-23T01:04:49.406Z,21.94
2018-03-23T01:05:49.415Z,21.99
2018-03-23T01:06:49.398Z,21.99
2018-03-23T01:07:49.393Z,22.01
2018-03-23T01:08:49.386Z,22.01
2018-03-23T01:09:49.431Z,21.99
2018-03-23T01:10:49.371Z,21.99
2018-03-23T01:11:49.384Z,21.99
2018-03-23T01:12:49.362Z,21.99
2018-03-23T01:13:49.353Z,21.91
2018-03-23T01:14:49.345Z,21.93
2018-03-23T01:15:49.345Z,21.91
2018-03-23T01:16:49.336Z,21.96
2018-03-23T01:17:49.348Z,22.01
2018-03-23T01:18:49.341Z,22.02
2018-03-23T01:19:49.317Z,22.08
2018-03-23T01:20:49.330Z,21.99
2018-03-23T01:21:49.306Z,21.98
2018-03-23T01:22:49.313Z,22.02
2018-03-23T01:23:49.312Z,22.05
2018-03-23T01:24:49.286Z,22.02
2018-03-23T01:25:49.283Z,22.06
2018-03-23T01:26:49.274Z,22.01
2018-03-23T01:27:49.268Z,22.01
2018-03-23T01:28:49.266Z,21.99
2018-03-23T01:29:49.259Z,22.06
2018-03-23T01:30:49.251Z,22.05
2018-03-23T01:31:49.260Z,22.09
2018-03-23T01:32:49.258Z,22.01
2018-03-23T01:33:49.232Z,22.04
2018-03-23T01:34:49.226Z,22.05
2018-03-23T01:35:49.221Z,21.99
2018-03-23T01:36:49.219Z,22.02
2018-03-23T01:37:49.228Z,22.08
2018-03-23T01:38:49.222Z,22.06
2018-03-23T01:39:49.216Z,22.04
2018-03-23T01:40:49.206Z,22.06
2018-03-23T01:41:49.212Z,22.05
2018-03-23T01:42:49.194Z,22.06
2018-03-23T01:43:49.177Z,22.04
2018-03-23T01:44:49.167Z,22.06
2018-03-23T01:45:49.161Z,22.04
2018-03-23T01:46:49.155Z,22.02
2018-03-23T01:47:49.254Z,21.99
2018-03-23T01:48:49.143Z,22.04
2018-03-23T01:49:49.156Z,22.01
2018-03-23T01:50:49.131Z,22.04
2018-03-23T01:51:49.130Z,22.02
2018-03-23T01:52:49.138Z,22.11
2018-03-23T01:53:49.133Z,21.99
2018-03-23T01:54:49.108Z,22.01
2018-03-23T01:55:49.102Z,22.01
2018-03-23T01:56:49.099Z,22.12
2018-03-23T01:57:49.099Z,22.12
2018-03-23T01:58:49.089Z,22.08
2018-03-23T01:59:49.077Z,22.11
2018-03-23T02:00:49.072Z,22.02
2018-03-23T02:01:49.067Z,22.01
2018-03-23T02:02:49.066Z,22.09
2018-03-23T02:03:49.055Z,22.04
2018-03-23T02:04:49.052Z,22.04
2018-03-23T02:05:49.048Z,22.14
2018-03-23T02:06:49.053Z,22.08
2018-03-23T02:07:49.051Z,22.11
2018-03-23T02:08:49.051Z,22.01
2018-03-23T02:09:49.034Z,22.06
2018-03-23T02:10:49.014Z,22.06
2018-03-23T02:11:49.008Z,22.02
2018-03-23T02:12:49.002Z,22.04
2018-03-23T02:13:48.996Z,22.04
2018-03-23T02:14:48.994Z,22.11
2018-03-23T02:15:48.984Z,22.11
2018-03-23T02:16:48.981Z,22.11
2018-03-23T02:17:49.073Z,22.15
2018-03-23T02:18:48.972Z,22.11
2018-03-23T02:19:48.960Z,22.15
2018-03-23T02:20:48.955Z,22.09
2018-03-23T02:21:48.949Z,22.17
2018-03-23T02:22:48.942Z,22.14
2018-03-23T02:23:48.937Z,22.21
2018-03-23T02:24:48.931Z,22.09
2018-03-23T02:25:48.929Z,22.12
2018-03-23T02:26:48.939Z,22.14
2018-03-23T02:27:48.914Z,22.12
2018-03-23T02:28:48.910Z,22.12
2018-03-23T02:29:48.905Z,22.15
2018-03-23T02:30:48.902Z,22.21
2018-03-23T02:31:48.906Z,22.19
2018-03-23T02:32:48.904Z,22.14
2018-03-23T02:33:48.893Z,22.21
2018-03-23T02:34:48.893Z,22.29
2018-03-23T02:35:48.873Z,22.26
2018-03-23T02:36:48.876Z,22.33
2018-03-23T02:37:48.883Z,22.20
2018-03-23T02:38:48.865Z,22.24
2018-03-23T02:39:48.859Z,22.33
2018-03-23T02:40:48.853Z,22.27
2018-03-23T02:41:48.847Z,22.30
2018-03-23T02:42:48.827Z,22.30
2018-03-23T02:43:48.821Z,22.31
2018-03-23T02:44:48.833Z,22.24
2018-03-23T02:45:48.825Z,22.27
2018-03-23T02:46:48.807Z,22.30
2018-03-23T02:47:48.797Z,22.27
2018-03-23T02:48:48.807Z,22.33
2018-03-23T02:49:48.786Z,22.30
2018-03-23T02:50:48.795Z,22.26
2018-03-23T02:51:48.777Z,22.33
2018-03-23T02:52:48.784Z,22.27
2018-03-23T02:53:48.762Z,22.30
2018-03-23T02:54:48.758Z,22.23
2018-03-23T02:55:48.767Z,22.31
2018-03-23T02:56:48.761Z,22.35
2018-03-23T02:57:48.762Z,22.26
2018-03-23T02:58:48.756Z,22.29
2018-03-23T02:59:48.743Z,22.29
2018-03-23T03:00:48.727Z,22.15
2018-03-23T03:01:48.720Z,22.33
2018-03-23T03:02:48.733Z,22.31
2018-03-23T03:03:48.705Z,22.29
2018-03-23T03:04:48.722Z,22.30
2018-03-23T03:05:48.699Z,22.23
2018-03-23T03:06:48.691Z,22.24
2018-03-23T03:07:48.701Z,22.29
2018-03-23T03:08:48.674Z,22.29
2018-03-23T03:09:48.685Z,22.30
2018-03-23T03:10:48.663Z,22.29
2018-03-23T03:11:48.680Z,22.26
2018-03-23T03:12:48.658Z,22.31
2018-03-23T03:13:48.647Z,22.26
2018-03-23T03:14:48.662Z,22.35
2018-03-23T03:15:48.653Z,22.26
2018-03-23T03:16:48.633Z,22.27
2018-03-23T03:17:48.623Z,22.24
2018-03-23T03:18:48.621Z,22.26
2018-03-23T03:19:48.615Z,22.19
2018-03-23T03:20:48.606Z,22.20
2018-03-23T03:21:48.604Z,22.29
2018-03-23T03:22:48.609Z,22.29
2018-03-23T03:23:48.604Z,22.30
2018-03-23T03:24:48.582Z,22.11
2018-03-23T03:25:48.577Z,22.21
2018-03-23T03:26:48.589Z,22.15
2018-03-23T03:27:48.583Z,22.33
2018-03-23T03:28:48.559Z,22.29
2018-03-23T03:29:48.571Z,22.20
2018-03-23T03:30:48.553Z,22.17
2018-03-23T03:31:48.550Z,22.12
2018-03-23T03:32:48.538Z,22.09
2018-03-23T03:33:48.533Z,22.21
2018-03-23T03:34:48.524Z,22.14
2018-03-23T03:35:48.525Z,22.11
2018-03-23T03:36:48.513Z,22.17
2018-03-23T03:37:48.528Z,22.19
2018-03-23T03:38:48.518Z,22.19
2018-03-23T03:39:48.496Z,22.33
2018-03-23T03:40:48.488Z,22.24
2018-03-23T03:41:48.483Z,22.26
2018-03-23T03:42:48.480Z,22.30
2018-03-23T03:43:48.490Z,22.33
2018-03-23T03:44:48.469Z,22.29
2018-03-23T03:45:48.478Z,22.39
2018-03-23T03:46:48.478Z,22.38
2018-03-23T03:47:48.453Z,22.39
2018-03-23T03:48:48.461Z,22.42
2018-03-23T03:49:48.437Z,22.39
2018-03-23T03:50:48.436Z,22.38
2018-03-23T03:51:48.426Z,22.38
2018-03-23T03:52:48.419Z,22.29
2018-03-23T03:53:48.414Z,22.29
2018-03-23T03:54:48.408Z,22.38
2018-03-23T03:55:48.403Z,22.39
2018-03-23T03:56:48.414Z,22.29
2018-03-23T03:57:48.393Z,22.29
2018-03-23T03:58:48.402Z,22.39
2018-03-23T03:59:48.396Z,22.33
2018-03-23T04:00:48.393Z,22.38
2018-03-23T04:01:48.371Z,22.39
2018-03-23T04:02:48.367Z,22.41
2018-03-23T04:03:48.373Z,22.35
2018-03-23T04:04:48.351Z,22.39
2018-03-23T04:05:48.345Z,22.36
2018-03-23T04:06:48.339Z,22.44
2018-03-23T04:07:48.339Z,22.30
2018-03-23T04:08:48.343Z,22.41
2018-03-23T04:09:48.338Z,22.39
2018-03-23T04:10:48.320Z,22.39
2018-03-23T04:11:48.312Z,22.41
2018-03-23T04:12:48.308Z,22.42
2018-03-23T04:13:48.300Z,22.42
2018-03-23T04:14:48.295Z,22.44
2018-03-23T04:15:48.289Z,22.38
2018-03-23T04:16:48.287Z,22.41
2018-03-23T04:17:48.376Z,22.44
2018-03-23T04:18:48.272Z,22.44
2018-03-23T04:19:48.269Z,22.46
2018-03-23T04:20:48.263Z,22.44
2018-03-23T04:21:48.255Z,22.48
2018-03-23T04:22:48.249Z,22.44
2018-03-23T04:23:48.244Z,22.44
2018-03-23T04:24:48.237Z,22.41
2018-03-23T04:25:48.233Z,22.41
2018-03-23T04:26:48.237Z,22.44
2018-03-23T04:27:48.254Z,22.45
2018-03-23T04:28:48.216Z,22.46
2018-03-23T04:29:48.329Z,22.42
2018-03-23T04:30:48.204Z,22.46
2018-03-23T04:31:48.203Z,22.42
2018-03-23T04:32:48.213Z,22.41
2018-03-23T04:33:48.193Z,22.42
2018-03-23T04:34:48.186Z,22.31
2018-03-23T04:35:48.191Z,22.46
2018-03-23T04:36:48.189Z,22.44
2018-03-23T04:37:48.167Z,22.39
2018-03-23T04:38:48.175Z,22.44
2018-03-23T04:39:48.156Z,22.45
2018-03-23T04:40:48.157Z,22.35
2018-03-23T04:41:48.146Z,22.45
2018-03-23T04:42:48.158Z,22.46
2018-03-23T04:43:48.128Z,22.46
2018-03-23T04:44:48.130Z,22.51
2018-03-23T04:49:34.104Z,22.42
2018-03-23T04:50:34.108Z,22.44
2018-03-23T04:51:34.115Z,22.45
2018-03-23T04:52:34.105Z,22.46
2018-03-23T04:53:34.110Z,22.48
2018-03-23T04:54:34.092Z,22.51
2018-03-23T04:55:34.097Z,22.48
2018-03-23T04:56:34.096Z,22.54
2018-03-23T04:57:34.069Z,22.59
2018-03-23T04:58:34.077Z,22.52
2018-03-23T04:59:34.054Z,22.49
2018-03-23T05:00:34.070Z,22.51
2018-03-23T05:01:34.065Z,22.51
2018-03-23T05:02:34.058Z,22.42
2018-03-23T05:03:34.047Z,22.42
2018-03-23T05:04:34.030Z,22.38
2018-03-23T05:05:34.024Z,22.30
2018-03-23T05:06:34.019Z,22.39
2018-03-23T05:07:34.026Z,22.38
2018-03-23T05:08:34.010Z,22.38
2018-03-23T05:09:34.020Z,22.41
2018-03-23T05:10:33.993Z,22.39
2018-03-23T05:11:33.989Z,22.41
2018-03-23T05:12:33.985Z,22.41
2018-03-23T05:13:33.980Z,22.38
2018-03-23T05:14:33.974Z,22.36
2018-03-23T05:15:33.967Z,22.41
2018-03-23T05:16:33.963Z,22.44
2018-03-23T05:17:33.974Z,22.42
2018-03-23T05:18:33.952Z,22.44
2018-03-23T05:19:33.963Z,22.36
2018-03-23T05:20:33.940Z,22.42
2018-03-23T05:21:33.930Z,22.42
2018-03-23T05:22:33.924Z,22.39
2018-03-23T05:23:33.923Z,22.44
2018-03-23T05:24:33.908Z,22.42
2018-03-23T05:25:33.911Z,22.36
2018-03-23T05:26:33.920Z,22.39
2018-03-23T05:27:33.900Z,22.39
2018-03-23T05:28:33.886Z,22.41
2018-03-23T05:29:33.885Z,22.39
2018-03-23T05:30:33.879Z,22.39
2018-03-23T05:31:33.886Z,22.33
2018-03-23T05:32:33.868Z,22.41
2018-03-23T05:33:33.867Z,22.41
2018-03-23T05:34:33.862Z,22.31
2018-03-23T05:35:33.862Z,22.36
2018-03-23T05:36:33.840Z,22.42
2018-03-23T05:37:33.839Z,22.41
2018-03-23T05:38:33.847Z,22.38
2018-03-23T05:39:33.825Z,22.42
2018-03-23T05:40:33.823Z,22.38
2018-03-23T05:41:33.812Z,22.31
2018-03-23T05:42:33.812Z,22.42
2018-03-23T05:43:33.817Z,22.48
2018-03-23T05:44:33.800Z,22.45
2018-03-23T05:45:33.795Z,22.46
2018-03-23T05:46:33.789Z,22.42
2018-03-23T05:47:33.783Z,22.42
2018-03-23T05:48:33.778Z,22.46
2018-03-23T05:49:33.793Z,22.44
2018-03-23T05:50:33.784Z,22.51
2018-03-23T05:51:33.760Z,22.52
2018-03-23T12:02:55.397Z,23.72
2018-03-23T12:03:55.140Z,23.77
2018-03-23T12:04:55.193Z,23.84
2018-03-23T12:05:55.134Z,23.90
2018-03-23T12:06:55.134Z,23.93
2018-03-23T12:07:55.144Z,24.05
2018-03-23T12:08:55.120Z,24.05
2018-03-23T12:09:55.129Z,24.15
2018-03-23T12:10:55.108Z,24.16
2018-03-23T12:11:55.120Z,24.12
2018-03-23T12:12:55.099Z,24.23
2018-03-23T12:13:55.098Z,24.26
2018-03-23T12:14:55.091Z,24.36
2018-03-23T12:15:55.113Z,24.44
2018-03-23T12:16:55.101Z,24.52
2018-03-23T12:17:55.075Z,24.70
2018-03-23T12:18:55.075Z,24.83
2018-03-23T12:19:55.081Z,24.89
2018-03-23T12:20:55.090Z,25.14
2018-03-23T12:21:55.059Z,25.29
2018-03-23T12:22:55.070Z,25.38
2018-03-23T12:23:55.049Z,25.72
2018-03-23T12:24:55.048Z,25.89
2018-03-23T12:25:55.041Z,25.86
2018-03-23T12:26:55.063Z,25.91
2018-03-23T12:27:55.033Z,26.03
2018-03-23T12:28:55.031Z,26.20
2018-03-23T12:29:55.026Z,26.51
2018-03-23T12:30:55.040Z,26.71
2018-03-23T12:31:55.068Z,26.66
2018-03-23T12:32:55.184Z,26.88
2018-03-23T12:33:55.013Z,27.03
2018-03-23T12:34:55.012Z,27.03
2018-03-23T12:35:55.007Z,27.08
2018-03-23T12:36:55.005Z,27.16
2018-03-23T12:37:55.056Z,27.31
2018-03-23T12:38:54.999Z,27.28
2018-03-23T12:39:55.009Z,27.58
2018-03-23T12:40:54.994Z,27.78
2018-03-23T12:41:54.986Z,27.62
2018-03-23T12:42:54.989Z,27.53
2018-03-23T12:43:54.980Z,27.35
2018-03-23T12:44:54.984Z,27.58
2018-03-23T12:45:54.981Z,27.74
2018-03-23T12:46:54.979Z,27.87
2018-03-23T12:47:54.978Z,28.11
2018-03-23T12:48:54.975Z,28.05
2018-03-23T12:49:54.972Z,28.25
2018-03-23T12:50:54.965Z,28.17
2018-03-23T12:51:55.023Z,28.33
2018-03-23T12:52:54.961Z,28.27
2018-03-23T12:53:54.961Z,28.15
2018-03-23T12:54:54.964Z,28.09
2018-03-23T12:55:54.962Z,28.20
2018-03-23T12:56:54.958Z,28.35
2018-03-23T12:57:54.965Z,28.32
2018-03-23T12:58:54.961Z,28.30
2018-03-23T12:59:54.961Z,28.38
2018-03-23T13:00:54.959Z,28.64
2018-03-23T13:01:54.949Z,28.80
2018-03-23T13:02:54.951Z,28.98
2018-03-23T13:03:54.948Z,28.76
2018-03-23T13:04:54.952Z,28.97
2018-03-23T13:05:54.966Z,29.00
2018-03-23T13:06:54.946Z,28.88
2018-03-23T13:07:54.948Z,28.94
2018-03-23T13:08:54.948Z,29.05
2018-03-23T13:09:54.945Z,29.26
2018-03-23T13:10:54.950Z,29.33
2018-03-23T13:11:54.942Z,29.18
2018-03-23T13:12:54.942Z,29.25
2018-03-23T13:13:54.939Z,29.30
2018-03-23T13:14:54.943Z,29.41
2018-03-23T13:15:54.939Z,29.51
2018-03-23T13:16:54.942Z,29.54
2018-03-23T13:17:54.943Z,29.54
2018-03-23T13:18:54.937Z,29.66
2018-03-23T13:19:54.942Z,29.66
2018-03-23T13:20:54.942Z,29.79
2018-03-23T13:21:54.941Z,29.89
2018-03-23T13:22:54.955Z,30.11
2018-03-23T13:23:54.938Z,30.26
2018-03-23T13:24:54.939Z,30.30
2018-03-23T13:25:54.941Z,30.38
2018-03-23T13:26:54.939Z,30.48
2018-03-23T13:27:54.939Z,30.46
2018-03-23T13:28:54.936Z,30.53
2018-03-23T13:29:54.941Z,30.46
2018-03-23T13:30:54.938Z,30.66
2018-03-23T13:31:54.938Z,30.40
2018-03-23T13:32:54.941Z,30.37
2018-03-23T13:33:54.938Z,30.32
2018-03-23T13:34:54.938Z,30.40
2018-03-23T13:35:54.930Z,30.28
2018-03-23T13:36:54.930Z,30.32
2018-03-23T13:37:54.939Z,30.29
2018-03-23T13:38:54.940Z,30.46
2018-03-23T13:39:54.951Z,30.48
2018-03-23T13:40:54.949Z,30.67
2018-03-23T13:41:54.941Z,30.79
2018-03-23T13:42:54.930Z,30.83
2018-03-23T13:43:55.015Z,30.75
2018-03-23T13:44:54.943Z,31.04
2018-03-23T13:45:54.943Z,31.04
2018-03-23T13:46:54.944Z,31.00
2018-03-23T13:47:54.945Z,31.20
2018-03-23T13:48:54.944Z,31.40
2018-03-23T13:49:54.986Z,31.60
2018-03-23T13:50:54.946Z,31.64
2018-03-23T13:51:54.936Z,31.49
2018-03-23T13:52:54.947Z,31.49
2018-03-23T13:53:54.938Z,31.40
2018-03-23T13:54:54.949Z,31.22
2018-03-23T13:55:54.956Z,31.00
2018-03-23T13:56:54.952Z,31.01
2018-03-23T13:57:54.956Z,31.10
2018-03-23T13:58:54.943Z,31.03
2018-03-23T13:59:54.949Z,31.10
2018-03-23T14:00:54.950Z,30.93
2018-03-23T14:01:54.951Z,30.61
2018-03-23T14:02:54.953Z,30.57
2018-03-23T14:03:54.956Z,30.49
2018-03-23T14:04:54.957Z,30.61
2018-03-23T14:05:54.946Z,30.64
2018-03-23T14:06:54.960Z,30.88
2018-03-23T14:07:54.957Z,30.85
2018-03-23T14:08:54.956Z,30.90
2018-03-23T14:09:54.956Z,31.00
2018-03-23T14:10:54.958Z,31.22
2018-03-23T14:11:54.954Z,31.19
2018-03-23T14:12:54.957Z,30.97
2018-03-23T14:13:54.956Z,31.05
2018-03-23T14:14:54.968Z,31.10
2018-03-23T14:15:54.960Z,31.04
2018-03-23T14:16:54.961Z,30.81
2018-03-23T14:17:54.960Z,30.59
2018-03-23T14:18:54.963Z,30.61
2018-03-23T14:19:54.964Z,30.75
2018-03-23T14:20:54.965Z,30.70
2018-03-23T14:21:54.966Z,30.63
2018-03-23T14:22:54.961Z,30.90
2018-03-23T14:23:54.957Z,30.61
2018-03-23T14:24:54.973Z,30.59
2018-03-23T14:25:54.966Z,30.70
2018-03-23T14:26:54.968Z,30.60
2018-03-23T14:27:54.969Z,30.59
2018-03-23T14:28:54.983Z,30.76
2018-03-23T14:29:54.984Z,30.78
2018-03-23T14:30:54.968Z,30.90
2018-03-23T14:31:54.971Z,30.96
2018-03-23T14:32:54.969Z,31.12
2018-03-23T14:33:54.973Z,31.20
2018-03-23T14:34:54.977Z,31.09
2018-03-23T14:35:54.988Z,31.01
2018-03-23T14:36:54.977Z,31.18
2018-03-23T14:37:54.990Z,31.16
2018-03-23T14:38:54.991Z,31.01
2018-03-23T14:39:54.977Z,31.18
2018-03-23T14:40:54.970Z,31.18
2018-03-23T14:41:54.979Z,31.19
2018-03-23T14:42:54.995Z,31.01
2018-03-23T14:43:54.986Z,30.96
2018-03-23T14:44:54.976Z,30.88
2018-03-23T14:45:54.986Z,30.86
2018-03-23T14:46:55.006Z,30.98
2018-03-23T14:47:54.980Z,31.03
2018-03-23T14:48:54.982Z,30.93
2018-03-23T14:49:55.001Z,30.83
2018-03-23T14:50:54.999Z,30.93
2018-03-23T14:51:55.000Z,30.94
2018-03-23T14:52:54.984Z,31.09
2018-03-23T14:53:55.014Z,31.18
2018-03-23T14:54:54.983Z,31.27
2018-03-23T14:55:54.985Z,31.31
2018-03-23T14:56:54.990Z,31.53
2018-03-23T14:57:54.991Z,31.47
2018-03-23T14:58:55.005Z,31.56
2018-03-23T14:59:54.989Z,31.64
2018-03-23T15:00:54.991Z,31.67
2018-03-23T15:01:55.016Z,31.79
2018-03-23T15:02:54.997Z,31.84
2018-03-23T15:03:54.997Z,31.87
2018-03-23T15:04:55.000Z,31.82
2018-03-23T15:05:55.000Z,31.28
2018-03-23T15:06:55.002Z,31.27
2018-03-23T15:07:55.017Z,31.20
2018-03-23T15:08:55.004Z,31.16
2018-03-23T15:09:55.000Z,31.09
2018-03-23T15:10:55.006Z,31.09
2018-03-23T15:11:55.009Z,30.88
2018-03-23T15:12:55.009Z,30.67
2018-03-23T15:13:55.023Z,30.63
2018-03-23T15:14:55.011Z,30.45
2018-03-23T15:15:55.013Z,30.32
2018-03-23T15:16:55.027Z,30.34
2018-03-23T15:17:55.010Z,30.37
2018-03-23T15:18:55.011Z,30.26
2018-03-23T15:19:55.034Z,30.30
2018-03-23T15:20:55.032Z,30.23
2018-03-23T15:21:55.038Z,30.22
2018-03-23T15:22:55.014Z,30.21
2018-03-23T15:23:55.013Z,30.26
2018-03-23T15:24:55.016Z,30.30
2018-03-23T15:25:55.018Z,30.34
2018-03-23T15:26:55.016Z,30.37
2018-03-23T15:27:55.017Z,30.21
2018-03-23T15:28:55.035Z,30.23
2018-03-23T15:29:55.035Z,29.99
2018-03-23T15:30:55.018Z,30.01
2018-03-23T15:31:55.018Z,30.01
2018-03-23T15:32:55.036Z,29.94
2018-03-23T15:33:55.023Z,29.76
2018-03-23T15:34:55.026Z,29.78
2018-03-23T15:35:55.033Z,29.86
2018-03-23T15:36:55.037Z,29.92
2018-03-23T15:37:55.020Z,30.08
2018-03-23T15:38:55.021Z,30.13
2018-03-23T15:39:55.042Z,30.07
2018-03-23T15:40:55.031Z,30.21
2018-03-23T15:41:55.020Z,30.22
2018-03-23T15:42:55.025Z,30.22
2018-03-23T15:43:55.021Z,30.11
2018-03-23T15:44:55.026Z,30.19
2018-03-23T15:45:55.024Z,30.18
2018-03-23T15:46:55.025Z,30.18
2018-03-23T15:47:55.022Z,30.25
2018-03-23T15:48:55.043Z,30.26
2018-03-23T15:49:55.023Z,30.26
2018-03-23T15:50:55.023Z,30.36
2018-03-23T15:51:55.029Z,30.28
2018-03-23T15:52:55.025Z,30.38
2018-03-23T15:53:55.027Z,30.25
2018-03-23T15:54:55.028Z,30.29
2018-03-23T15:55:55.026Z,30.26
2018-03-23T15:56:55.031Z,30.34
2018-03-23T15:57:55.030Z,30.44
2018-03-23T15:58:55.025Z,30.29
2018-03-23T15:59:55.031Z,30.38
2018-03-23T16:00:55.044Z,30.29
2018-03-23T16:01:55.091Z,30.37
2018-03-23T16:02:55.031Z,30.28
2018-03-23T16:03:55.032Z,30.38
2018-03-23T16:04:55.033Z,30.37
2018-03-23T16:05:55.029Z,30.40
2018-03-23T16:06:55.034Z,30.34
2018-03-23T16:07:55.031Z,30.36
2018-03-23T16:08:55.051Z,30.37
2018-03-23T16:09:55.047Z,30.30
2018-03-23T16:10:55.040Z,30.23
2018-03-23T16:11:55.038Z,30.26
2018-03-23T16:12:55.034Z,30.19
2018-03-23T16:13:55.033Z,30.23
2018-03-23T16:14:55.048Z,30.25
2018-03-23T16:15:55.034Z,30.08
2018-03-23T16:16:55.039Z,30.11
2018-03-23T16:17:55.040Z,30.15
2018-03-23T16:18:55.034Z,30.08
2018-03-23T16:19:55.040Z,30.11
2018-03-23T16:20:55.035Z,30.22
2018-03-23T16:21:55.034Z,30.11
2018-03-23T16:22:55.035Z,30.22
2018-03-23T16:23:55.037Z,30.13
2018-03-23T16:24:55.035Z,30.18
2018-03-23T16:25:55.039Z,30.07
2018-03-23T16:26:55.032Z,30.13
2018-03-23T16:27:55.039Z,30.10
2018-03-23T16:28:55.039Z,30.10
2018-03-23T16:29:55.038Z,30.13
2018-03-23T16:30:55.029Z,30.21
2018-03-23T16:31:55.038Z,30.13
2018-03-23T16:32:55.054Z,30.25
2018-03-23T16:33:55.029Z,30.23
2018-03-23T16:34:55.036Z,30.11
2018-03-23T16:35:55.054Z,30.03
2018-03-23T16:36:55.041Z,29.97
2018-03-23T16:37:55.034Z,29.97
2018-03-23T16:38:55.030Z,29.95
2018-03-23T16:39:55.035Z,30.01
2018-03-23T16:40:55.041Z,29.99
2018-03-23T16:41:55.034Z,30.00
2018-03-23T16:42:55.104Z,30.10
2018-03-23T16:43:55.040Z,30.16
2018-03-23T16:44:55.041Z,30.06
2018-03-23T16:45:55.048Z,30.11
2018-03-23T16:46:55.040Z,30.11
2018-03-23T16:47:55.055Z,30.10
2018-03-23T16:48:55.041Z,30.18
2018-03-23T16:49:55.031Z,30.11
2018-03-23T16:50:55.041Z,30.25
2018-03-23T16:51:55.047Z,30.19
2018-03-23T16:52:55.031Z,30.08
2018-03-23T16:53:55.036Z,30.01
2018-03-23T16:54:55.037Z,29.95
2018-03-23T16:55:55.054Z,30.00
2018-03-23T16:56:55.050Z,30.04
2018-03-23T16:57:55.030Z,30.10
2018-03-23T16:58:55.032Z,30.08
2018-03-23T16:59:55.045Z,30.03
2018-03-23T17:00:55.059Z,29.95
2018-03-23T17:01:55.055Z,30.06
2018-03-23T17:02:55.049Z,29.86
2018-03-23T17:03:55.043Z,29.89
2018-03-23T17:04:55.059Z,29.91
2018-03-23T17:05:55.060Z,29.97
2018-03-23T17:06:55.041Z,29.95
2018-03-23T17:07:55.044Z,29.95
2018-03-23T17:08:55.035Z,29.97
2018-03-23T17:09:55.041Z,29.94
2018-03-23T17:10:55.159Z,29.92
2018-03-23T17:11:55.059Z,29.97
2018-03-23T17:12:55.054Z,30.00
2018-03-23T17:13:55.036Z,29.92
2018-03-23T17:14:55.030Z,29.88
2018-03-23T17:15:55.043Z,29.74
2018-03-23T17:16:55.037Z,29.57
2018-03-23T17:17:55.036Z,29.49
2018-03-23T17:18:55.057Z,29.33
2018-03-23T17:19:55.049Z,29.10
2018-03-23T17:20:55.053Z,28.98
2018-03-23T17:21:55.038Z,28.89
2018-03-23T17:22:55.033Z,28.83
2018-03-23T17:23:55.051Z,28.77
2018-03-23T17:24:55.044Z,28.79
2018-03-23T17:25:55.035Z,28.70
2018-03-23T17:26:55.062Z,28.77
2018-03-23T17:27:55.034Z,28.73
2018-03-23T17:28:55.048Z,28.36
2018-03-23T17:29:55.022Z,27.99
2018-03-23T17:30:55.032Z,27.99
2018-03-23T17:31:55.027Z,28.02
2018-03-23T17:32:55.020Z,28.03
2018-03-23T17:33:55.200Z,27.77
2018-03-23T17:34:55.018Z,27.62
2018-03-23T17:35:55.025Z,27.68
2018-03-23T17:36:55.023Z,27.59
2018-03-23T17:37:55.028Z,27.53
2018-03-23T17:38:55.039Z,27.49
2018-03-23T17:39:55.038Z,27.40
2018-03-23T17:40:55.036Z,27.46
2018-03-23T17:41:55.012Z,27.58
2018-03-23T17:42:55.008Z,27.59
2018-03-23T17:43:55.025Z,27.48
2018-03-23T17:44:55.010Z,27.42
2018-03-23T17:45:55.006Z,27.42
2018-03-23T17:46:55.002Z,27.34
2018-03-23T17:47:55.004Z,27.35
2018-03-23T17:48:55.033Z,27.34
2018-03-23T17:49:55.000Z,27.03
2018-03-23T17:50:54.998Z,27.06
2018-03-23T17:51:55.009Z,26.97
2018-03-23T17:52:55.011Z,26.94
2018-03-23T17:53:54.987Z,27.02
2018-03-23T17:54:54.985Z,26.93
2018-03-23T17:55:54.976Z,26.86
2018-03-23T17:56:54.981Z,26.94
2018-03-23T17:57:54.977Z,26.93
2018-03-23T17:58:54.976Z,26.98
2018-03-23T17:59:54.967Z,26.84
2018-03-23T18:00:54.972Z,26.75
2018-03-23T18:01:54.972Z,26.64
2018-03-23T18:02:54.965Z,26.53
2018-03-23T18:03:54.963Z,26.49
2018-03-23T18:04:54.964Z,26.42
2018-03-23T18:05:54.957Z,26.36
2018-03-23T18:06:54.955Z,26.31
2018-03-23T18:07:54.948Z,26.23
2018-03-23T18:08:54.950Z,26.19
2018-03-23T18:09:54.946Z,26.16
2018-03-23T18:10:54.943Z,26.08
2018-03-23T18:11:54.940Z,26.03
2018-03-23T18:12:54.943Z,25.89
2018-03-23T18:13:54.934Z,25.97
2018-03-23T18:14:54.932Z,25.86
2018-03-23T18:15:54.922Z,25.90
2018-03-23T18:16:54.926Z,25.91
2018-03-23T18:17:54.922Z,25.89
2018-03-23T18:18:54.919Z,25.83
2018-03-23T18:19:54.915Z,25.78
2018-03-23T18:20:54.913Z,25.74
2018-03-23T18:21:54.909Z,25.59
2018-03-23T18:22:54.906Z,25.69
2018-03-23T18:23:54.906Z,25.63
2018-03-23T18:24:54.902Z,25.64
2018-03-23T18:25:54.888Z,25.69
2018-03-23T18:26:54.892Z,25.71
2018-03-23T18:27:54.892Z,25.66
2018-03-23T18:28:54.888Z,25.56
2018-03-23T18:29:54.881Z,25.66
2018-03-23T18:30:54.872Z,25.57
2018-03-23T18:31:54.882Z,25.46
2018-03-23T18:32:54.872Z,25.46
2018-03-23T18:33:54.868Z,25.69
2018-03-23T18:34:54.858Z,25.51
2018-03-23T18:35:54.861Z,25.53
2018-03-23T18:36:54.860Z,25.53
2018-03-23T18:37:54.854Z,25.56
2018-03-23T18:38:54.851Z,25.63
2018-03-23T18:39:54.848Z,25.66
2018-03-23T18:40:54.840Z,25.76
2018-03-23T18:41:54.843Z,25.79
2018-03-23T18:42:54.837Z,25.67
2018-03-23T18:43:54.833Z,25.66
2018-03-23T18:44:54.830Z,25.75
2018-03-23T18:45:54.826Z,25.75
2018-03-23T18:46:54.823Z,25.76
2018-03-23T18:47:54.819Z,25.76
2018-03-23T18:48:54.811Z,25.85
2018-03-23T18:49:54.805Z,25.74
2018-03-23T18:50:54.809Z,25.82
2018-03-23T18:51:54.806Z,25.78
2018-03-23T18:52:54.803Z,25.86
2018-03-23T18:53:54.800Z,25.89
2018-03-23T18:54:54.789Z,25.89
2018-03-23T18:55:54.793Z,25.81
2018-03-23T18:56:54.793Z,25.66
2018-03-23T18:57:54.785Z,25.69
2018-03-23T18:58:54.782Z,25.72
2018-03-23T18:59:54.782Z,25.75
2018-03-23T19:00:54.769Z,25.78
2018-03-23T19:01:54.772Z,25.76
2018-03-23T19:02:54.770Z,25.76
2018-03-23T19:03:54.766Z,25.66
2018-03-23T19:04:54.767Z,25.67
2018-03-23T19:05:54.761Z,25.78
2018-03-23T19:06:54.763Z,25.82